createdAt,value
2023-03-27T16:45:07.406Z,58.40
2023-03-27T16:50:14.824Z,109.50
2023-03-27T16:55:16.286Z,139.27
2023-03-27T17:00:19.783Z,114.20
2023-03-27T17:05:21.223Z,112.97
2023-03-27T17:10:22.748Z,78.15
2023-03-27T17:15:25.497Z,56.17
2023-03-27T17:20:27.059Z,28.77
2023-03-27T17:25:28.488Z,17.25
2023-03-27T17:30:39.582Z,15.93
2023-03-27T17:35:44.341Z,23.98
2023-03-27T17:40:45.824Z,124.60
2023-03-27T17:45:48.626Z,75.43
2023-03-27T17:51:05.224Z,44.38
2023-03-27T17:56:09.829Z,34.65
2023-03-27T18:01:13.528Z,51.22
2023-03-27T18:09:48.422Z,1.30
2023-03-27T18:14:49.834Z,3.50
2023-03-27T18:20:16.093Z,3.80
2023-03-27T18:25:17.784Z,2.85
2023-03-27T18:30:19.432Z,2.17
2023-03-27T18:38:41.029Z,5.50
2023-03-27T18:43:42.648Z,3.90
2023-03-27T18:48:44.796Z,5.15
2023-03-27T18:53:49.763Z,537.60
2023-03-27T18:58:51.955Z,238.10
2023-03-27T19:03:54.119Z,36.15
2023-03-27T19:08:57.633Z,10.90
2023-03-27T19:14:00.390Z,4.15
2023-03-27T19:19:12.168Z,55.45
2023-03-27T19:24:30.209Z,136.15
2023-03-27T19:29:33.238Z,219.05
2023-03-27T19:34:42.386Z,212.93
2023-03-27T19:39:46.273Z,197.25
2023-03-27T19:44:48.181Z,365.80
2023-03-27T19:49:50.078Z,331.85
2023-03-27T19:55:07.987Z,317.27
2023-03-27T20:00:10.971Z,313.33
2023-03-27T20:05:15.586Z,309.35
2023-03-27T20:10:18.770Z,304.20
2023-03-27T20:15:20.566Z,298.88
2023-03-27T20:20:22.269Z,296.15
2023-03-27T20:25:25.672Z,292.48
2023-03-27T20:30:27.587Z,285.10
2023-03-27T20:35:29.930Z,282.98
2023-03-27T20:40:46.294Z,279.05
2023-03-27T20:45:55.824Z,280.23
2023-03-27T20:50:57.422Z,272.83
2023-03-27T20:56:02.137Z,267.27
2023-03-27T21:01:04.325Z,261.67
2023-03-27T21:06:07.846Z,258.80
2023-03-27T21:11:11.028Z,261.38
2023-03-27T21:16:12.758Z,254.35
2023-03-27T21:21:14.479Z,253.88
2023-03-27T21:26:17.656Z,249.07
2023-03-27T21:31:20.137Z,240.80
2023-03-27T21:36:22.065Z,245.55
2023-03-27T21:41:25.557Z,235.43
2023-03-27T21:46:27.199Z,237.77
2023-03-27T21:51:28.951Z,233.95
2023-03-27T21:56:32.770Z,228.30
2023-03-27T22:01:36.355Z,224.45
2023-03-27T22:06:38.057Z,225.98
2023-03-27T22:11:43.887Z,222.38
2023-03-27T22:16:45.556Z,212.00
2023-03-27T22:21:48.906Z,211.55
2023-03-27T22:26:54.677Z,211.20
2023-03-27T22:31:57.748Z,208.20
2023-03-27T22:37:01.422Z,205.90
2023-03-27T22:42:04.686Z,206.13
2023-03-27T22:47:10.493Z,201.30
2023-03-27T22:52:12.142Z,189.70
2023-03-27T22:57:15.250Z,191.43
2023-03-27T23:02:17.012Z,194.50
2023-03-27T23:07:18.626Z,184.18
2023-03-27T23:12:21.581Z,187.77
2023-03-27T23:17:23.234Z,184.65
2023-03-27T23:22:27.650Z,181.90
2023-03-27T23:27:30.676Z,175.15
2023-03-27T23:32:35.500Z,178.20
2023-03-27T23:37:37.367Z,171.45
2023-03-27T23:42:43.175Z,171.00
2023-03-27T23:47:46.407Z,169.15
2023-03-27T23:52:48.348Z,168.82
2023-03-27T23:57:51.335Z,163.55
